sensor_id;sensor_type;location;lat;lon;timestamp;P1;durP1;ratioP1;P2;durP2;ratioP2
25525;SDS011;13424;48.424;11.258;2023-07-20T00:01:47;5.70;;;3.72;;
25525;SDS011;13424;48.424;11.258;2023-07-20T00:04:13;8.25;;;3.90;;
25525;SDS011;13424;48.424;11.258;2023-07-20T00:06:39;9.63;;;4.28;;
25525;SDS011;13424;48.424;11.258;2023-07-20T00:09:08;11.85;;;4.05;;
25525;SDS011;13424;48.424;11.258;2023-07-20T00:11:37;6.45;;;3.53;;
25525;SDS011;13424;48.424;11.258;2023-07-20T00:14:07;8.63;;;4.40;;
25525;SDS011;13424;48.424;11.258;2023-07-20T00:16:33;6.05;;;3.85;;
25525;SDS011;13424;48.424;11.258;2023-07-20T00:18:59;11.23;;;4.88;;
25525;SDS011;13424;48.424;11.258;2023-07-20T00:21:25;7.93;;;4.05;;
25525;SDS011;13424;48.424;11.258;2023-07-20T00:23:51;8.40;;;5.10;;
25525;SDS011;13424;48.424;11.258;2023-07-20T00:26:17;4.97;;;3.72;;
25525;SDS011;13424;48.424;11.258;2023-07-20T00:28:42;7.10;;;4.13;;
25525;SDS011;13424;48.424;11.258;2023-07-20T00:31:08;5.97;;;4.20;;
25525;SDS011;13424;48.424;11.258;2023-07-20T00:33:36;5.97;;;3.67;;
25525;SDS011;13424;48.424;11.258;2023-07-20T00:36:01;11.38;;;4.00;;
25525;SDS011;13424;48.424;11.258;2023-07-20T00:42:15;14.73;;;4.38;;
25525;SDS011;13424;48.424;11.258;2023-07-20T00:44:40;12.45;;;3.90;;
25525;SDS011;13424;48.424;11.258;2023-07-20T00:47:06;9.68;;;3.67;;
25525;SDS011;13424;48.424;11.258;2023-07-20T00:49:32;7.38;;;3.88;;
25525;SDS011;13424;48.424;11.258;2023-07-20T00:51:59;5.05;;;3.25;;
25525;SDS011;13424;48.424;11.258;2023-07-20T00:54:26;12.60;;;4.22;;
25525;SDS011;13424;48.424;11.258;2023-07-20T00:56:53;6.97;;;4.07;;
25525;SDS011;13424;48.424;11.258;2023-07-20T00:59:19;6.53;;;3.67;;
25525;SDS011;13424;48.424;11.258;2023-07-20T01:01:46;6.88;;;3.72;;
25525;SDS011;13424;48.424;11.258;2023-07-20T01:04:13;11.55;;;3.67;;
25525;SDS011;13424;48.424;11.258;2023-07-20T01:11:16;9.48;;;3.40;;
25525;SDS011;13424;48.424;11.258;2023-07-20T01:14:07;9.65;;;3.90;;
25525;SDS011;13424;48.424;11.258;2023-07-20T01:16:34;5.35;;;2.92;;
25525;SDS011;13424;48.424;11.258;2023-07-20T01:19:00;7.00;;;3.20;;
25525;SDS011;13424;48.424;11.258;2023-07-20T01:21:31;4.88;;;2.67;;
25525;SDS011;13424;48.424;11.258;2023-07-20T01:24:32;7.30;;;3.42;;
25525;SDS011;13424;48.424;11.258;2023-07-20T01:27:45;5.68;;;3.22;;
25525;SDS011;13424;48.424;11.258;2023-07-20T01:30:46;4.22;;;3.15;;
25525;SDS011;13424;48.424;11.258;2023-07-20T01:33:52;8.45;;;3.15;;
25525;SDS011;13424;48.424;11.258;2023-07-20T01:36:22;6.38;;;3.03;;
25525;SDS011;13424;48.424;11.258;2023-07-20T01:38:52;7.07;;;3.47;;
25525;SDS011;13424;48.424;11.258;2023-07-20T01:41:18;5.30;;;3.05;;
25525;SDS011;13424;48.424;11.258;2023-07-20T01:43:45;4.20;;;3.30;;
25525;SDS011;13424;48.424;11.258;2023-07-20T01:46:11;4.85;;;3.13;;
25525;SDS011;13424;48.424;11.258;2023-07-20T01:48:37;4.15;;;2.92;;
25525;SDS011;13424;48.424;11.258;2023-07-20T01:51:03;5.80;;;2.92;;
25525;SDS011;13424;48.424;11.258;2023-07-20T01:53:29;3.72;;;3.20;;
25525;SDS011;13424;48.424;11.258;2023-07-20T01:55:56;5.40;;;2.95;;
25525;SDS011;13424;48.424;11.258;2023-07-20T01:58:22;5.78;;;3.13;;
25525;SDS011;13424;48.424;11.258;2023-07-20T02:00:49;6.97;;;2.70;;
25525;SDS011;13424;48.424;11.258;2023-07-20T02:03:24;6.30;;;2.75;;
25525;SDS011;13424;48.424;11.258;2023-07-20T02:05:52;4.30;;;2.90;;
25525;SDS011;13424;48.424;11.258;2023-07-20T02:08:18;3.47;;;3.03;;
25525;SDS011;13424;48.424;11.258;2023-07-20T02:10:47;4.78;;;2.67;;
25525;SDS011;13424;48.424;11.258;2023-07-20T02:13:14;4.53;;;3.00;;
25525;SDS011;13424;48.424;11.258;2023-07-20T02:15:41;8.30;;;3.03;;
25525;SDS011;13424;48.424;11.258;2023-07-20T02:18:10;5.45;;;3.22;;
25525;SDS011;13424;48.424;11.258;2023-07-20T02:20:36;7.90;;;2.80;;
25525;SDS011;13424;48.424;11.258;2023-07-20T02:23:02;9.27;;;3.08;;
25525;SDS011;13424;48.424;11.258;2023-07-20T02:25:28;7.70;;;3.00;;
25525;SDS011;13424;48.424;11.258;2023-07-20T02:27:56;3.10;;;2.45;;
25525;SDS011;13424;48.424;11.258;2023-07-20T02:30:22;5.32;;;2.50;;
25525;SDS011;13424;48.424;11.258;2023-07-20T02:32:48;4.13;;;2.55;;
25525;SDS011;13424;48.424;11.258;2023-07-20T02:35:15;6.20;;;2.40;;
25525;SDS011;13424;48.424;11.258;2023-07-20T02:37:41;2.33;;;2.05;;
25525;SDS011;13424;48.424;11.258;2023-07-20T02:43:26;3.78;;;2.60;;
25525;SDS011;13424;48.424;11.258;2023-07-20T02:45:52;4.30;;;2.53;;
25525;SDS011;13424;48.424;11.258;2023-07-20T02:48:18;7.18;;;2.53;;
25525;SDS011;13424;48.424;11.258;2023-07-20T02:50:50;12.27;;;2.35;;
25525;SDS011;13424;48.424;11.258;2023-07-20T02:53:16;2.65;;;2.15;;
25525;SDS011;13424;48.424;11.258;2023-07-20T02:55:42;8.00;;;2.60;;
25525;SDS011;13424;48.424;11.258;2023-07-20T02:58:08;3.88;;;2.00;;
25525;SDS011;13424;48.424;11.258;2023-07-20T03:00:34;3.60;;;2.65;;
25525;SDS011;13424;48.424;11.258;2023-07-20T03:03:00;2.92;;;2.08;;
25525;SDS011;13424;48.424;11.258;2023-07-20T03:05:26;3.80;;;2.70;;
25525;SDS011;13424;48.424;11.258;2023-07-20T03:07:54;4.78;;;2.75;;
25525;SDS011;13424;48.424;11.258;2023-07-20T03:10:21;8.68;;;2.40;;
25525;SDS011;13424;48.424;11.258;2023-07-20T03:12:47;3.55;;;2.35;;
25525;SDS011;13424;48.424;11.258;2023-07-20T03:15:13;6.60;;;2.85;;
25525;SDS011;13424;48.424;11.258;2023-07-20T03:17:45;6.90;;;2.65;;
25525;SDS011;13424;48.424;11.258;2023-07-20T03:20:11;5.72;;;2.60;;
25525;SDS011;13424;48.424;11.258;2023-07-20T03:22:38;6.43;;;2.97;;
25525;SDS011;13424;48.424;11.258;2023-07-20T03:25:04;4.28;;;2.58;;
25525;SDS011;13424;48.424;11.258;2023-07-20T03:27:32;5.90;;;2.38;;
25525;SDS011;13424;48.424;11.258;2023-07-20T03:29:59;9.80;;;3.10;;
25525;SDS011;13424;48.424;11.258;2023-07-20T03:32:26;3.88;;;2.90;;
25525;SDS011;13424;48.424;11.258;2023-07-20T03:34:52;8.43;;;2.72;;
25525;SDS011;13424;48.424;11.258;2023-07-20T03:37:18;4.93;;;2.70;;
25525;SDS011;13424;48.424;11.258;2023-07-20T03:39:44;4.50;;;2.83;;
25525;SDS011;13424;48.424;11.258;2023-07-20T03:42:10;5.68;;;2.80;;
25525;SDS011;13424;48.424;11.258;2023-07-20T03:44:36;5.80;;;2.63;;
25525;SDS011;13424;48.424;11.258;2023-07-20T03:47:02;8.45;;;3.47;;
25525;SDS011;13424;48.424;11.258;2023-07-20T03:49:29;4.50;;;2.90;;
25525;SDS011;13424;48.424;11.258;2023-07-20T03:51:55;5.60;;;2.50;;
25525;SDS011;13424;48.424;11.258;2023-07-20T03:54:21;4.68;;;2.63;;
25525;SDS011;13424;48.424;11.258;2023-07-20T03:56:47;5.35;;;2.55;;
25525;SDS011;13424;48.424;11.258;2023-07-20T03:59:13;3.58;;;2.55;;
25525;SDS011;13424;48.424;11.258;2023-07-20T04:01:39;5.65;;;2.95;;
25525;SDS011;13424;48.424;11.258;2023-07-20T04:04:06;5.97;;;2.88;;
25525;SDS011;13424;48.424;11.258;2023-07-20T04:06:33;5.95;;;2.83;;
25525;SDS011;13424;48.424;11.258;2023-07-20T04:08:59;5.40;;;2.88;;
25525;SDS011;13424;48.424;11.258;2023-07-20T04:11:25;4.97;;;3.10;;
25525;SDS011;13424;48.424;11.258;2023-07-20T04:17:05;6.53;;;2.85;;
25525;SDS011;13424;48.424;11.258;2023-07-20T04:19:31;5.20;;;2.63;;
25525;SDS011;13424;48.424;11.258;2023-07-20T04:21:57;8.90;;;2.90;;
25525;SDS011;13424;48.424;11.258;2023-07-20T04:24:23;4.85;;;2.88;;
25525;SDS011;13424;48.424;11.258;2023-07-20T04:26:49;6.90;;;2.70;;
25525;SDS011;13424;48.424;11.258;2023-07-20T04:29:15;4.90;;;3.03;;
25525;SDS011;13424;48.424;11.258;2023-07-20T04:31:42;3.33;;;2.55;;
25525;SDS011;13424;48.424;11.258;2023-07-20T04:34:08;5.25;;;2.72;;
25525;SDS011;13424;48.424;11.258;2023-07-20T04:36:36;5.50;;;2.40;;
25525;SDS011;13424;48.424;11.258;2023-07-20T04:39:03;7.13;;;2.60;;
25525;SDS011;13424;48.424;11.258;2023-07-20T04:41:36;8.38;;;3.03;;
25525;SDS011;13424;48.424;11.258;2023-07-20T04:44:02;6.28;;;2.60;;
25525;SDS011;13424;48.424;11.258;2023-07-20T04:46:29;4.63;;;2.95;;
25525;SDS011;13424;48.424;11.258;2023-07-20T04:48:57;12.25;;;2.97;;
25525;SDS011;13424;48.424;11.258;2023-07-20T04:51:24;4.80;;;3.10;;
25525;SDS011;13424;48.424;11.258;2023-07-20T04:53:53;7.38;;;3.17;;
25525;SDS011;13424;48.424;11.258;2023-07-20T04:56:19;5.25;;;3.28;;
25525;SDS011;13424;48.424;11.258;2023-07-20T04:58:49;6.38;;;3.28;;
25525;SDS011;13424;48.424;11.258;2023-07-20T05:01:15;12.80;;;3.05;;
25525;SDS011;13424;48.424;11.258;2023-07-20T05:03:41;7.10;;;3.13;;
25525;SDS011;13424;48.424;11.258;2023-07-20T05:06:09;4.45;;;2.70;;
25525;SDS011;13424;48.424;11.258;2023-07-20T05:08:35;5.53;;;3.25;;
25525;SDS011;13424;48.424;11.258;2023-07-20T05:11:01;5.47;;;2.60;;
25525;SDS011;13424;48.424;11.258;2023-07-20T05:13:27;4.07;;;2.90;;
25525;SDS011;13424;48.424;11.258;2023-07-20T05:15:53;5.20;;;3.08;;
25525;SDS011;13424;48.424;11.258;2023-07-20T05:18:20;5.35;;;3.13;;
25525;SDS011;13424;48.424;11.258;2023-07-20T05:20:47;3.83;;;2.60;;
25525;SDS011;13424;48.424;11.258;2023-07-20T05:23:18;6.85;;;3.55;;
25525;SDS011;13424;48.424;11.258;2023-07-20T05:25:54;4.75;;;3.10;;
25525;SDS011;13424;48.424;11.258;2023-07-20T05:28:24;5.72;;;2.47;;
25525;SDS011;13424;48.424;11.258;2023-07-20T05:30:54;7.63;;;3.03;;
25525;SDS011;13424;48.424;11.258;2023-07-20T05:33:21;4.18;;;2.92;;
25525;SDS011;13424;48.424;11.258;2023-07-20T05:35:47;5.95;;;3.53;;
25525;SDS011;13424;48.424;11.258;2023-07-20T05:38:16;6.00;;;2.50;;
25525;SDS011;13424;48.424;11.258;2023-07-20T05:40:43;5.75;;;3.30;;
25525;SDS011;13424;48.424;11.258;2023-07-20T05:43:10;6.80;;;2.85;;
25525;SDS011;13424;48.424;11.258;2023-07-20T05:45:36;9.38;;;3.17;;
25525;SDS011;13424;48.424;11.258;2023-07-20T05:48:02;5.30;;;3.55;;
25525;SDS011;13424;48.424;11.258;2023-07-20T05:50:29;5.32;;;2.92;;
25525;SDS011;13424;48.424;11.258;2023-07-20T05:52:55;4.60;;;2.80;;
25525;SDS011;13424;48.424;11.258;2023-07-20T05:55:21;2.70;;;2.45;;
25525;SDS011;13424;48.424;11.258;2023-07-20T05:57:46;4.93;;;2.85;;
25525;SDS011;13424;48.424;11.258;2023-07-20T06:00:14;5.00;;;2.90;;
25525;SDS011;13424;48.424;11.258;2023-07-20T06:02:41;8.93;;;2.88;;
25525;SDS011;13424;48.424;11.258;2023-07-20T06:05:08;5.78;;;3.00;;
25525;SDS011;13424;48.424;11.258;2023-07-20T06:07:37;5.55;;;2.75;;
25525;SDS011;13424;48.424;11.258;2023-07-20T06:10:05;4.85;;;2.97;;
25525;SDS011;13424;48.424;11.258;2023-07-20T06:12:31;5.18;;;2.75;;
25525;SDS011;13424;48.424;11.258;2023-07-20T06:15:02;8.20;;;3.20;;
25525;SDS011;13424;48.424;11.258;2023-07-20T06:17:48;6.95;;;3.60;;
25525;SDS011;13424;48.424;11.258;2023-07-20T06:20:14;5.43;;;2.67;;
25525;SDS011;13424;48.424;11.258;2023-07-20T06:22:40;6.93;;;2.67;;
25525;SDS011;13424;48.424;11.258;2023-07-20T06:25:06;5.53;;;3.58;;
25525;SDS011;13424;48.424;11.258;2023-07-20T06:27:33;4.22;;;3.17;;
25525;SDS011;13424;48.424;11.258;2023-07-20T06:29:58;4.35;;;2.63;;
25525;SDS011;13424;48.424;11.258;2023-07-20T06:32:24;5.95;;;3.20;;
25525;SDS011;13424;48.424;11.258;2023-07-20T06:34:50;4.70;;;3.35;;
25525;SDS011;13424;48.424;11.258;2023-07-20T06:37:16;10.73;;;3.83;;
25525;SDS011;13424;48.424;11.258;2023-07-20T06:39:42;4.82;;;2.97;;
25525;SDS011;13424;48.424;11.258;2023-07-20T06:42:08;6.40;;;3.63;;
25525;SDS011;13424;48.424;11.258;2023-07-20T06:44:34;4.30;;;2.75;;
25525;SDS011;13424;48.424;11.258;2023-07-20T06:47:00;4.07;;;3.30;;
25525;SDS011;13424;48.424;11.258;2023-07-20T06:49:38;5.18;;;2.88;;
25525;SDS011;13424;48.424;11.258;2023-07-20T06:52:04;5.13;;;3.00;;
25525;SDS011;13424;48.424;11.258;2023-07-20T06:54:33;5.78;;;2.70;;
25525;SDS011;13424;48.424;11.258;2023-07-20T06:56:59;3.53;;;2.83;;
25525;SDS011;13424;48.424;11.258;2023-07-20T06:59:25;5.30;;;3.00;;
25525;SDS011;13424;48.424;11.258;2023-07-20T07:01:51;8.18;;;3.05;;
25525;SDS011;13424;48.424;11.258;2023-07-20T07:04:17;6.78;;;3.30;;
25525;SDS011;13424;48.424;11.258;2023-07-20T07:06:43;6.85;;;3.20;;
25525;SDS011;13424;48.424;11.258;2023-07-20T07:09:10;4.57;;;3.03;;
25525;SDS011;13424;48.424;11.258;2023-07-20T07:11:36;3.17;;;2.88;;
25525;SDS011;13424;48.424;11.258;2023-07-20T07:14:02;7.22;;;2.55;;
25525;SDS011;13424;48.424;11.258;2023-07-20T07:16:28;5.07;;;3.35;;
25525;SDS011;13424;48.424;11.258;2023-07-20T07:18:53;3.90;;;2.83;;
25525;SDS011;13424;48.424;11.258;2023-07-20T07:21:20;5.55;;;2.80;;
25525;SDS011;13424;48.424;11.258;2023-07-20T07:23:46;4.57;;;3.03;;
25525;SDS011;13424;48.424;11.258;2023-07-20T07:26:13;5.97;;;2.88;;
25525;SDS011;13424;48.424;11.258;2023-07-20T07:28:39;3.95;;;2.67;;
25525;SDS011;13424;48.424;11.258;2023-07-20T07:31:05;4.65;;;2.72;;
25525;SDS011;13424;48.424;11.258;2023-07-20T07:33:32;6.72;;;2.50;;
25525;SDS011;13424;48.424;11.258;2023-07-20T07:35:58;4.00;;;2.42;;
25525;SDS011;13424;48.424;11.258;2023-07-20T07:38:24;3.60;;;2.50;;
25525;SDS011;13424;48.424;11.258;2023-07-20T07:40:59;6.43;;;2.60;;
25525;SDS011;13424;48.424;11.258;2023-07-20T07:43:25;4.78;;;2.72;;
25525;SDS011;13424;48.424;11.258;2023-07-20T07:45:54;4.10;;;2.67;;
25525;SDS011;13424;48.424;11.258;2023-07-20T07:48:21;3.70;;;2.80;;
25525;SDS011;13424;48.424;11.258;2023-07-20T07:50:47;3.30;;;2.55;;
25525;SDS011;13424;48.424;11.258;2023-07-20T07:53:15;5.55;;;3.08;;
25525;SDS011;13424;48.424;11.258;2023-07-20T07:55:41;5.43;;;2.63;;
25525;SDS011;13424;48.424;11.258;2023-07-20T07:58:07;5.00;;;2.72;;
25525;SDS011;13424;48.424;11.258;2023-07-20T08:00:33;3.30;;;2.38;;
25525;SDS011;13424;48.424;11.258;2023-07-20T08:02:59;6.15;;;2.75;;
25525;SDS011;13424;48.424;11.258;2023-07-20T08:05:25;3.05;;;2.47;;
25525;SDS011;13424;48.424;11.258;2023-07-20T08:07:51;2.95;;;2.35;;
25525;SDS011;13424;48.424;11.258;2023-07-20T08:10:18;7.13;;;2.50;;
25525;SDS011;13424;48.424;11.258;2023-07-20T08:12:44;3.42;;;2.47;;
25525;SDS011;13424;48.424;11.258;2023-07-20T08:15:13;3.78;;;3.25;;
25525;SDS011;13424;48.424;11.258;2023-07-20T08:17:41;2.58;;;2.20;;
25525;SDS011;13424;48.424;11.258;2023-07-20T08:20:09;4.13;;;2.28;;
25525;SDS011;13424;48.424;11.258;2023-07-20T08:22:44;3.50;;;2.30;;
25525;SDS011;13424;48.424;11.258;2023-07-20T08:25:10;4.65;;;3.22;;
25525;SDS011;13424;48.424;11.258;2023-07-20T08:27:37;2.40;;;2.20;;
25525;SDS011;13424;48.424;11.258;2023-07-20T08:30:03;3.30;;;2.45;;
25525;SDS011;13424;48.424;11.258;2023-07-20T08:32:30;2.40;;;2.00;;
25525;SDS011;13424;48.424;11.258;2023-07-20T08:34:58;4.75;;;2.25;;
25525;SDS011;13424;48.424;11.258;2023-07-20T08:37:24;2.60;;;2.08;;
25525;SDS011;13424;48.424;11.258;2023-07-20T08:44:15;5.28;;;2.55;;
25525;SDS011;13424;48.424;11.258;2023-07-20T08:46:41;5.03;;;2.22;;
25525;SDS011;13424;48.424;11.258;2023-07-20T08:49:09;4.70;;;2.42;;
25525;SDS011;13424;48.424;11.258;2023-07-20T08:51:36;4.90;;;2.83;;
25525;SDS011;13424;48.424;11.258;2023-07-20T08:54:04;5.43;;;2.58;;
25525;SDS011;13424;48.424;11.258;2023-07-20T08:56:31;5.95;;;2.63;;
25525;SDS011;13424;48.424;11.258;2023-07-20T08:58:59;2.47;;;1.52;;
25525;SDS011;13424;48.424;11.258;2023-07-20T09:01:27;2.95;;;1.88;;
25525;SDS011;13424;48.424;11.258;2023-07-20T09:03:55;3.10;;;2.20;;
25525;SDS011;13424;48.424;11.258;2023-07-20T09:06:21;2.45;;;2.10;;
25525;SDS011;13424;48.424;11.258;2023-07-20T09:08:47;3.85;;;2.97;;
25525;SDS011;13424;48.424;11.258;2023-07-20T09:11:14;3.28;;;1.92;;
25525;SDS011;13424;48.424;11.258;2023-07-20T09:13:40;2.80;;;2.60;;
25525;SDS011;13424;48.424;11.258;2023-07-20T09:16:06;4.00;;;2.28;;
25525;SDS011;13424;48.424;11.258;2023-07-20T09:18:32;4.65;;;2.80;;
25525;SDS011;13424;48.424;11.258;2023-07-20T09:21:04;3.38;;;1.90;;
25525;SDS011;13424;48.424;11.258;2023-07-20T09:26:12;2.20;;;1.98;;
25525;SDS011;13424;48.424;11.258;2023-07-20T09:28:47;3.45;;;2.47;;
25525;SDS011;13424;48.424;11.258;2023-07-20T09:31:23;4.57;;;2.47;;
25525;SDS011;13424;48.424;11.258;2023-07-20T09:33:52;2.95;;;2.47;;
25525;SDS011;13424;48.424;11.258;2023-07-20T09:38:46;5.55;;;2.95;;
25525;SDS011;13424;48.424;11.258;2023-07-20T09:41:15;2.92;;;2.10;;
25525;SDS011;13424;48.424;11.258;2023-07-20T09:43:43;5.13;;;2.40;;
25525;SDS011;13424;48.424;11.258;2023-07-20T09:46:11;3.83;;;2.40;;
25525;SDS011;13424;48.424;11.258;2023-07-20T09:52:41;2.58;;;2.10;;
25525;SDS011;13424;48.424;11.258;2023-07-20T09:55:09;5.07;;;2.13;;
25525;SDS011;13424;48.424;11.258;2023-07-20T09:57:37;4.55;;;2.45;;
25525;SDS011;13424;48.424;11.258;2023-07-20T10:00:05;3.15;;;2.08;;
25525;SDS011;13424;48.424;11.258;2023-07-20T10:02:43;4.85;;;2.28;;
25525;SDS011;13424;48.424;11.258;2023-07-20T10:05:12;4.47;;;2.13;;
25525;SDS011;13424;48.424;11.258;2023-07-20T10:07:49;5.03;;;2.22;;
25525;SDS011;13424;48.424;11.258;2023-07-20T10:10:18;3.45;;;2.17;;
25525;SDS011;13424;48.424;11.258;2023-07-20T10:12:47;2.58;;;2.22;;
25525;SDS011;13424;48.424;11.258;2023-07-20T10:15:24;4.13;;;2.65;;
25525;SDS011;13424;48.424;11.258;2023-07-20T10:18:07;2.28;;;1.95;;
25525;SDS011;13424;48.424;11.258;2023-07-20T10:23:09;3.22;;;2.65;;
25525;SDS011;13424;48.424;11.258;2023-07-20T10:25:36;4.00;;;2.55;;
25525;SDS011;13424;48.424;11.258;2023-07-20T10:28:05;3.85;;;2.38;;
25525;SDS011;13424;48.424;11.258;2023-07-20T10:30:36;2.35;;;2.08;;
25525;SDS011;13424;48.424;11.258;2023-07-20T10:33:04;3.88;;;2.72;;
25525;SDS011;13424;48.424;11.258;2023-07-20T10:35:31;4.57;;;2.42;;
25525;SDS011;13424;48.424;11.258;2023-07-20T10:38:19;4.72;;;2.95;;
25525;SDS011;13424;48.424;11.258;2023-07-20T10:40:54;5.03;;;2.40;;
25525;SDS011;13424;48.424;11.258;2023-07-20T10:43:26;3.15;;;2.53;;
25525;SDS011;13424;48.424;11.258;2023-07-20T10:45:53;6.05;;;2.58;;
25525;SDS011;13424;48.424;11.258;2023-07-20T10:48:20;6.10;;;2.53;;
25525;SDS011;13424;48.424;11.258;2023-07-20T10:53:40;6.07;;;2.50;;
25525;SDS011;13424;48.424;11.258;2023-07-20T10:56:14;6.03;;;2.60;;
25525;SDS011;13424;48.424;11.258;2023-07-20T10:58:45;3.40;;;2.10;;
25525;SDS011;13424;48.424;11.258;2023-07-20T11:01:16;3.78;;;2.15;;
25525;SDS011;13424;48.424;11.258;2023-07-20T11:03:43;3.75;;;2.35;;
25525;SDS011;13424;48.424;11.258;2023-07-20T11:06:29;3.67;;;2.20;;
25525;SDS011;13424;48.424;11.258;2023-07-20T11:09:13;3.25;;;2.28;;
25525;SDS011;13424;48.424;11.258;2023-07-20T11:11:49;3.00;;;2.08;;
25525;SDS011;13424;48.424;11.258;2023-07-20T11:14:25;4.13;;;2.47;;
25525;SDS011;13424;48.424;11.258;2023-07-20T11:16:52;3.42;;;2.40;;
25525;SDS011;13424;48.424;11.258;2023-07-20T11:19:22;6.05;;;2.35;;
25525;SDS011;13424;48.424;11.258;2023-07-20T11:21:57;3.58;;;2.15;;
25525;SDS011;13424;48.424;11.258;2023-07-20T11:24:24;5.82;;;2.33;;
25525;SDS011;13424;48.424;11.258;2023-07-20T11:26:51;3.75;;;2.40;;
25525;SDS011;13424;48.424;11.258;2023-07-20T11:29:20;4.15;;;2.95;;
25525;SDS011;13424;48.424;11.258;2023-07-20T11:31:48;3.53;;;2.85;;
25525;SDS011;13424;48.424;11.258;2023-07-20T11:34:16;2.30;;;2.08;;
25525;SDS011;13424;48.424;11.258;2023-07-20T11:36:46;4.55;;;2.40;;
25525;SDS011;13424;48.424;11.258;2023-07-20T11:39:15;5.88;;;2.53;;
25525;SDS011;13424;48.424;11.258;2023-07-20T11:44:22;5.80;;;2.58;;
25525;SDS011;13424;48.424;11.258;2023-07-20T11:49:39;2.72;;;2.22;;
25525;SDS011;13424;48.424;11.258;2023-07-20T11:52:14;4.45;;;2.47;;
25525;SDS011;13424;48.424;11.258;2023-07-20T11:54:42;3.90;;;2.72;;
25525;SDS011;13424;48.424;11.258;2023-07-20T11:57:18;2.20;;;2.00;;
25525;SDS011;13424;48.424;11.258;2023-07-20T12:00:00;3.25;;;2.72;;
25525;SDS011;13424;48.424;11.258;2023-07-20T12:02:34;6.57;;;2.92;;
25525;SDS011;13424;48.424;11.258;2023-07-20T12:05:01;2.38;;;2.17;;
25525;SDS011;13424;48.424;11.258;2023-07-20T12:07:29;3.35;;;2.53;;
25525;SDS011;13424;48.424;11.258;2023-07-20T12:10:10;5.57;;;2.65;;
25525;SDS011;13424;48.424;11.258;2023-07-20T12:12:38;4.15;;;2.47;;
25525;SDS011;13424;48.424;11.258;2023-07-20T12:15:16;3.13;;;2.30;;
25525;SDS011;13424;48.424;11.258;2023-07-20T12:17:50;4.32;;;2.85;;
25525;SDS011;13424;48.424;11.258;2023-07-20T12:20:44;2.63;;;2.28;;
25525;SDS011;13424;48.424;11.258;2023-07-20T12:23:12;4.88;;;2.45;;
25525;SDS011;13424;48.424;11.258;2023-07-20T12:30:40;5.45;;;2.30;;
25525;SDS011;13424;48.424;11.258;2023-07-20T12:33:07;5.32;;;2.40;;
25525;SDS011;13424;48.424;11.258;2023-07-20T12:35:33;4.10;;;2.50;;
25525;SDS011;13424;48.424;11.258;2023-07-20T12:38:00;3.75;;;2.53;;
25525;SDS011;13424;48.424;11.258;2023-07-20T12:40:26;7.00;;;2.50;;
25525;SDS011;13424;48.424;11.258;2023-07-20T12:42:52;2.75;;;2.17;;
25525;SDS011;13424;48.424;11.258;2023-07-20T12:45:18;3.35;;;2.60;;
25525;SDS011;13424;48.424;11.258;2023-07-20T12:47:44;6.10;;;2.33;;
25525;SDS011;13424;48.424;11.258;2023-07-20T12:50:11;2.50;;;2.00;;
25525;SDS011;13424;48.424;11.258;2023-07-20T12:52:38;2.90;;;2.40;;
25525;SDS011;13424;48.424;11.258;2023-07-20T12:55:06;4.00;;;2.45;;
25525;SDS011;13424;48.424;11.258;2023-07-20T12:57:35;3.80;;;2.55;;
25525;SDS011;13424;48.424;11.258;2023-07-20T13:00:03;3.38;;;2.17;;
25525;SDS011;13424;48.424;11.258;2023-07-20T13:02:35;3.28;;;2.58;;
25525;SDS011;13424;48.424;11.258;2023-07-20T13:05:01;3.42;;;2.45;;
25525;SDS011;13424;48.424;11.258;2023-07-20T13:07:35;3.13;;;2.65;;
25525;SDS011;13424;48.424;11.258;2023-07-20T13:10:04;4.72;;;2.53;;
25525;SDS011;13424;48.424;11.258;2023-07-20T13:12:33;4.63;;;2.20;;
25525;SDS011;13424;48.424;11.258;2023-07-20T13:15:08;3.60;;;2.50;;
25525;SDS011;13424;48.424;11.258;2023-07-20T13:17:38;2.75;;;1.80;;
25525;SDS011;13424;48.424;11.258;2023-07-20T13:20:06;2.38;;;2.15;;
25525;SDS011;13424;48.424;11.258;2023-07-20T13:22:35;3.28;;;2.03;;
25525;SDS011;13424;48.424;11.258;2023-07-20T13:25:02;3.97;;;2.17;;
25525;SDS011;13424;48.424;11.258;2023-07-20T13:27:28;3.17;;;1.98;;
25525;SDS011;13424;48.424;11.258;2023-07-20T13:29:55;3.67;;;2.63;;
25525;SDS011;13424;48.424;11.258;2023-07-20T13:32:22;3.33;;;2.50;;
25525;SDS011;13424;48.424;11.258;2023-07-20T13:34:48;3.92;;;2.35;;
25525;SDS011;13424;48.424;11.258;2023-07-20T13:37:14;5.30;;;2.33;;
25525;SDS011;13424;48.424;11.258;2023-07-20T13:39:41;5.18;;;2.53;;
25525;SDS011;13424;48.424;11.258;2023-07-20T13:42:07;4.25;;;2.70;;
25525;SDS011;13424;48.424;11.258;2023-07-20T13:44:34;3.65;;;2.38;;
25525;SDS011;13424;48.424;11.258;2023-07-20T13:47:03;5.30;;;2.75;;
25525;SDS011;13424;48.424;11.258;2023-07-20T13:49:32;3.35;;;2.20;;
25525;SDS011;13424;48.424;11.258;2023-07-20T13:51:59;3.75;;;2.53;;
25525;SDS011;13424;48.424;11.258;2023-07-20T13:54:25;2.22;;;1.95;;
25525;SDS011;13424;48.424;11.258;2023-07-20T13:56:51;3.78;;;2.35;;
25525;SDS011;13424;48.424;11.258;2023-07-20T13:59:20;2.75;;;2.30;;
25525;SDS011;13424;48.424;11.258;2023-07-20T14:01:46;3.72;;;2.40;;
25525;SDS011;13424;48.424;11.258;2023-07-20T14:04:13;2.58;;;2.20;;
25525;SDS011;13424;48.424;11.258;2023-07-20T14:06:39;2.92;;;2.65;;
25525;SDS011;13424;48.424;11.258;2023-07-20T14:09:06;7.05;;;2.38;;
25525;SDS011;13424;48.424;11.258;2023-07-20T14:11:32;5.47;;;3.30;;
25525;SDS011;13424;48.424;11.258;2023-07-20T14:13:58;4.03;;;2.13;;
25525;SDS011;13424;48.424;11.258;2023-07-20T14:20:21;3.97;;;2.28;;
25525;SDS011;13424;48.424;11.258;2023-07-20T14:22:47;2.50;;;2.10;;
25525;SDS011;13424;48.424;11.258;2023-07-20T14:25:15;2.72;;;2.03;;
25525;SDS011;13424;48.424;11.258;2023-07-20T14:28:08;3.17;;;2.80;;
25525;SDS011;13424;48.424;11.258;2023-07-20T14:30:34;3.45;;;2.38;;
25525;SDS011;13424;48.424;11.258;2023-07-20T14:33:00;3.53;;;2.75;;
25525;SDS011;13424;48.424;11.258;2023-07-20T14:35:26;4.15;;;2.17;;
25525;SDS011;13424;48.424;11.258;2023-07-20T14:37:52;5.78;;;2.35;;
25525;SDS011;13424;48.424;11.258;2023-07-20T14:40:18;4.25;;;2.28;;
25525;SDS011;13424;48.424;11.258;2023-07-20T14:42:44;2.58;;;2.08;;
25525;SDS011;13424;48.424;11.258;2023-07-20T14:45:11;6.20;;;2.13;;
25525;SDS011;13424;48.424;11.258;2023-07-20T14:47:37;5.13;;;2.22;;
25525;SDS011;13424;48.424;11.258;2023-07-20T14:50:04;3.00;;;2.15;;
25525;SDS011;13424;48.424;11.258;2023-07-20T14:52:31;3.40;;;2.70;;
25525;SDS011;13424;48.424;11.258;2023-07-20T14:54:57;3.72;;;2.28;;
25525;SDS011;13424;48.424;11.258;2023-07-20T14:57:24;3.70;;;2.30;;
25525;SDS011;13424;48.424;11.258;2023-07-20T14:59:50;5.60;;;2.38;;
25525;SDS011;13424;48.424;11.258;2023-07-20T15:02:16;3.33;;;2.10;;
25525;SDS011;13424;48.424;11.258;2023-07-20T15:07:55;2.35;;;2.15;;
25525;SDS011;13424;48.424;11.258;2023-07-20T15:10:21;3.72;;;3.17;;
25525;SDS011;13424;48.424;11.258;2023-07-20T15:12:47;5.88;;;1.98;;
25525;SDS011;13424;48.424;11.258;2023-07-20T15:15:14;3.42;;;2.25;;
25525;SDS011;13424;48.424;11.258;2023-07-20T15:17:43;3.70;;;2.00;;
25525;SDS011;13424;48.424;11.258;2023-07-20T15:23:43;6.13;;;2.28;;
25525;SDS011;13424;48.424;11.258;2023-07-20T15:26:09;3.55;;;2.47;;
25525;SDS011;13424;48.424;11.258;2023-07-20T15:28:39;2.72;;;2.38;;
25525;SDS011;13424;48.424;11.258;2023-07-20T15:31:06;7.22;;;2.47;;
25525;SDS011;13424;48.424;11.258;2023-07-20T15:33:32;3.50;;;2.50;;
25525;SDS011;13424;48.424;11.258;2023-07-20T15:35:58;7.00;;;2.42;;